Argyle, Wisconsin
Current Conditions -  °F | °C
As of 12:15 PM on Friday 31 Oct 2014 (Local Time) from KEFT Reporting Station
Broken Clouds Broken Clouds  
Wind Chill: 24°   Ceiling: 3700
Heat Index: 36°   Visibility: 10mi
Dew Point: 23°   Wind: 22mph
Humidity: 60%   Direction: 360°N
Pressure: 30.3"   Gusts: 35mph
Location:  42.7°N, 89.87°W
Report Text: KEFT 311715Z AUTO 36019G30KT 10SM BKN037 02/M05 A3030 RMK AO2
Loading
Personal Weather Stations






























Interactive Weather Map
Tropical Storm Tracking
New forecast layout! Learn more

10-Day Weather Forecast

Advertisements
Track Severe Weather on mobile